Time;durP1;ratioP1;P1;durP2;ratioP2;P2;SDS_P1;SDS_P2;PMS_P1;PMS_P2;Temp;Humidity;BMP_temperature;BMP_pressure;BME280_temperature;BME280_humidity;BME280_pressure;Samples;Min_cycle;Max_cycle;Signal;HPM_P1;HPM_P2
2023/09/14 00:02:15;;;;;;;;;;;;;;;;;;5093820;28;19915;-69
2023/09/14 00:04:41;;;;;;;;;;;;;;;;;;5093597;28;19938;-70
2023/09/14 00:07:07;;;;;;;;;;;;;;;;;;5094032;28;19912;-70
2023/09/14 00:09:33;;;;;;;;;;;;;;;;;;5093997;28;20390;-70
2023/09/14 00:11:59;;;;;;;;;;;;;;;;;;5094133;28;19908;-70
2023/09/14 00:14:24;;;;;;;;;;;;;;;;;;5093828;28;19908;-69
2023/09/14 00:16:50;;;;;;;;;;;;;;;;;;5093805;28;20389;-70
2023/09/14 00:19:16;;;;;;;;;;;;;;;;;;5071401;28;19912;-70
2023/09/14 00:21:42;;;;;;;;;;;;;;;;;;5093739;28;19916;-70
2023/09/14 00:24:08;;;;;;;;;;;;;;;;;;5093631;28;19915;-69
2023/09/14 00:26:34;;;;;;;;;;;;;;;;;;5073544;28;19908;-70
2023/09/14 00:29:00;;;;;;;;;;;;;;;;;;5093222;28;19916;-70
2023/09/14 00:31:26;;;;;;;;;;;;;;;;;;5093701;28;19915;-70
2023/09/14 00:33:52;;;;;;;;;;;;;;;;;;5093096;28;19942;-71
2023/09/14 00:36:18;;;;;;;;;;;;;;;;;;5093762;28;20018;-69
2023/09/14 00:38:44;;;;;;;;;;;;;;;;;;5093838;28;19912;-69
2023/09/14 00:41:09;;;;;;;;;;;;;;;;;;5087893;28;20410;-70
2023/09/14 00:43:35;;;;;;;;;;;;;;;;;;5093610;28;19948;-70
2023/09/14 00:46:01;;;;;;;;;;;;;;;;;;5075808;28;19915;-70
2023/09/14 00:48:28;;;;;;;;;;;;;;;;;;5093600;28;19913;-70
2023/09/14 00:50:54;;;;;;;;;;;;;;;;;;5093669;28;19908;-70
2023/09/14 00:53:20;;;;;;;;;;;;;;;;;;5093308;28;20333;-69
2023/09/14 00:55:45;;;;;;;;;;;;;;;;;;5093206;28;19915;-70
2023/09/14 00:58:15;;;;;;;;;;;;;;;;;;5093036;28;20340;-70
2023/09/14 01:00:41;;;;;;;;;;;;;;;;;;5092992;28;19912;-70
2023/09/14 01:03:07;;;;;;;;;;;;;;;;;;5092922;28;20002;-70
2023/09/14 01:05:33;;;;;;;;;;;;;;;;;;5092902;28;19908;-70
2023/09/14 01:07:59;;;;;;;;;;;;;;;;;;5092880;28;20272;-70
2023/09/14 01:10:25;;;;;;;;;;;;;;;;;;5089583;28;19964;-70
2023/09/14 01:12:51;;;;;;;;;;;;;;;;;;5092792;28;19908;-70
2023/09/14 01:15:19;;;;;;;;;;;;;;;;;;5092564;28;19915;-70
2023/09/14 01:17:45;;;;;;;;;;;;;;;;;;5092877;28;19909;-70
2023/09/14 01:20:11;;;;;;;;;;;;;;;;;;5092717;28;19946;-70
2023/09/14 01:22:37;;;;;;;;;;;;;;;;;;5092579;28;20037;-71
2023/09/14 01:25:04;;;;;;;;;;;;;;;;;;5092441;28;19961;-71
2023/09/14 01:27:30;;;;;;;;;;;;;;;;;;5090564;28;19916;-71
2023/09/14 01:29:56;;;;;;;;;;;;;;;;;;5092423;28;19934;-70
2023/09/14 01:32:22;;;;;;;;;;;;;;;;;;5074321;28;19932;-70
2023/09/14 01:34:48;;;;;;;;;;;;;;;;;;5081784;28;19912;-71
2023/09/14 01:37:14;;;;;;;;;;;;;;;;;;5092472;28;19908;-71
2023/09/14 01:39:40;;;;;;;;;;;;;;;;;;5092253;28;20282;-71
2023/09/14 01:42:06;;;;;;;;;;;;;;;;;;5092557;28;19914;-71
2023/09/14 01:44:31;;;;;;;;;;;;;;;;;;5088169;28;19908;-71
2023/09/14 01:46:57;;;;;;;;;;;;;;;;;;5092180;28;19908;-71
2023/09/14 01:49:23;;;;;;;;;;;;;;;;;;5086477;28;19932;-70
2023/09/14 01:51:49;;;;;;;;;;;;;;;;;;5092179;28;19950;-70
2023/09/14 01:54:15;;;;;;;;;;;;;;;;;;5073333;28;19956;-70
2023/09/14 01:56:41;;;;;;;;;;;;;;;;;;5092065;28;19961;-71
2023/09/14 01:59:07;;;;;;;;;;;;;;;;;;5091907;28;20388;-70
2023/09/14 02:01:33;;;;;;;;;;;;;;;;;;5092079;28;20303;-69
2023/09/14 02:03:59;;;;;;;;;;;;;;;;;;5091846;28;19953;-69
2023/09/14 02:06:25;;;;;;;;;;;;;;;;;;5092080;28;20010;-69
2023/09/14 02:08:51;;;;;;;;;;;;;;;;;;5091741;28;19916;-69
2023/09/14 02:11:17;;;;;;;;;;;;;;;;;;5073779;28;19908;-69
2023/09/14 02:13:42;;;;;;;;;;;;;;;;;;5091497;28;19995;-69
2023/09/14 02:16:09;;;;;;;;;;;;;;;;;;5091930;28;19954;-70
2023/09/14 02:18:35;;;;;;;;;;;;;;;;;;5091749;28;20304;-69
2023/09/14 02:21:01;;;;;;;;;;;;;;;;;;5091560;28;19908;-70
2023/09/14 02:23:26;;;;;;;;;;;;;;;;;;5091867;28;19909;-71
2023/09/14 02:25:55;;;;;;;;;;;;;;;;;;5071605;28;19916;-70
2023/09/14 02:28:21;;;;;;;;;;;;;;;;;;5091687;28;19962;-69
2023/09/14 02:30:47;;;;;;;;;;;;;;;;;;5091693;28;20371;-69
2023/09/14 02:33:13;;;;;;;;;;;;;;;;;;5091485;28;19978;-69
2023/09/14 02:35:38;;;;;;;;;;;;;;;;;;5091572;28;20439;-69
2023/09/14 02:38:04;;;;;;;;;;;;;;;;;;5091678;28;19908;-69
2023/09/14 02:40:30;;;;;;;;;;;;;;;;;;5091704;28;20342;-70
2023/09/14 02:42:56;;;;;;;;;;;;;;;;;;5091498;28;20292;-69
2023/09/14 02:45:22;;;;;;;;;;;;;;;;;;5091473;28;19908;-69
2023/09/14 02:47:48;;;;;;;;;;;;;;;;;;5073262;28;20363;-70
2023/09/14 02:50:14;;;;;;;;;;;;;;;;;;5091720;28;19946;-70
2023/09/14 02:52:40;;;;;;;;;;;;;;;;;;5091627;28;19908;-69
2023/09/14 02:55:06;;;;;;;;;;;;;;;;;;5091472;28;19908;-70
2023/09/14 02:57:32;;;;;;;;;;;;;;;;;;5073374;28;20385;-70
2023/09/14 02:59:58;;;;;;;;;;;;;;;;;;5091357;28;19931;-71
2023/09/14 03:02:24;;;;;;;;;;;;;;;;;;5073369;28;19962;-71
2023/09/14 03:04:50;;;;;;;;;;;;;;;;;;5091457;28;19915;-70
2023/09/14 03:07:15;;;;;;;;;;;;;;;;;;5094440;28;19916;-71
2023/09/14 03:09:41;;;;;;;;;;;;;;;;;;5095152;28;20575;-71
2023/09/14 03:12:07;;;;;;;;;;;;;;;;;;5095274;28;20418;-68
2023/09/14 03:14:33;;;;;;;;;;;;;;;;;;5094959;28;19916;-70
2023/09/14 03:16:59;;;;;;;;;;;;;;;;;;5095003;28;19908;-69
2023/09/14 03:19:25;;;;;;;;;;;;;;;;;;5095099;28;19912;-70
2023/09/14 03:21:51;;;;;;;;;;;;;;;;;;5095025;28;20003;-70
2023/09/14 03:24:17;;;;;;;;;;;;;;;;;;5094628;28;19916;-69
2023/09/14 03:26:43;;;;;;;;;;;;;;;;;;5089195;28;19962;-70
2023/09/14 03:29:09;;;;;;;;;;;;;;;;;;5094934;28;19920;-70
2023/09/14 03:31:35;;;;;;;;;;;;;;;;;;5094632;28;19908;-70
2023/09/14 03:34:01;;;;;;;;;;;;;;;;;;5076551;28;19978;-70
2023/09/14 03:36:27;;;;;;;;;;;;;;;;;;5094738;28;20007;-70
2023/09/14 03:38:53;;;;;;;;;;;;;;;;;;5076235;28;19969;-70
2023/09/14 03:41:19;;;;;;;;;;;;;;;;;;5094665;28;19908;-70
2023/09/14 03:43:45;;;;;;;;;;;;;;;;;;5094343;28;19919;-71
2023/09/14 03:46:10;;;;;;;;;;;;;;;;;;5094467;28;20100;-71
2023/09/14 03:48:36;;;;;;;;;;;;;;;;;;5094311;28;19912;-71
2023/09/14 03:51:03;;;;;;;;;;;;;;;;;;5094537;28;19908;-70
2023/09/14 03:53:29;;;;;;;;;;;;;;;;;;5094250;28;19908;-70
2023/09/14 03:55:55;;;;;;;;;;;;;;;;;;5094385;28;19915;-70
2023/09/14 03:58:21;;;;;;;;;;;;;;;;;;5094113;28;19912;-70
2023/09/14 04:00:47;;;;;;;;;;;;;;;;;;5094190;28;19912;-70
2023/09/14 04:03:13;;;;;;;;;;;;;;;;;;5094130;28;19908;-70
2023/09/14 04:05:38;;;;;;;;;;;;;;;;;;5094311;28;19908;-70
2023/09/14 04:08:04;;;;;;;;;;;;;;;;;;5094068;28;19980;-70
2023/09/14 04:10:30;;;;;;;;;;;;;;;;;;5094088;28;19933;-70
2023/09/14 04:12:56;;;;;;;;;;;;;;;;;;5075867;28;19908;-70
2023/09/14 04:15:22;;;;;;;;;;;;;;;;;;5093865;28;19941;-70
2023/09/14 04:17:48;;;;;;;;;;;;;;;;;;5093400;28;19908;-70
2023/09/14 04:20:14;;;;;;;;;;;;;;;;;;5093993;28;19915;-70
2023/09/14 04:22:40;;;;;;;;;;;;;;;;;;5093798;28;20367;-70
2023/09/14 04:25:06;;;;;;;;;;;;;;;;;;5093714;28;20363;-70
2023/09/14 04:27:32;;;;;;;;;;;;;;;;;;5091753;28;20321;-69
2023/09/14 04:29:57;;;;;;;;;;;;;;;;;;5093615;28;19914;-69
2023/09/14 04:32:23;;;;;;;;;;;;;;;;;;5093447;28;19908;-70
2023/09/14 04:34:49;;;;;;;;;;;;;;;;;;5093473;28;19908;-69
2023/09/14 04:37:15;;;;;;;;;;;;;;;;;;5093869;28;19909;-69
2023/09/14 04:39:42;;;;;;;;;;;;;;;;;;5075271;28;19913;-69
2023/09/14 04:42:09;;;;;;;;;;;;;;;;;;5093707;28;19908;-70
2023/09/14 04:44:35;;;;;;;;;;;;;;;;;;5085086;28;20418;-71
2023/09/14 04:47:00;;;;;;;;;;;;;;;;;;5093660;28;19959;-70
2023/09/14 04:49:26;;;;;;;;;;;;;;;;;;5093317;28;19960;-70
2023/09/14 04:51:52;;;;;;;;;;;;;;;;;;5093297;28;19914;-70
2023/09/14 04:54:18;;;;;;;;;;;;;;;;;;5084560;28;19908;-71
2023/09/14 04:56:50;;;;;;;;;;;;;;;;;;5091384;28;19908;-70
2023/09/14 04:59:16;;;;;;;;;;;;;;;;;;5087029;28;20408;-71
2023/09/14 05:01:42;;;;;;;;;;;;;;;;;;5093106;28;19938;-70
2023/09/14 05:04:08;;;;;;;;;;;;;;;;;;5092829;28;20045;-70
2023/09/14 05:06:34;;;;;;;;;;;;;;;;;;5092681;28;20398;-71
2023/09/14 05:09:00;;;;;;;;;;;;;;;;;;5086095;28;19926;-68
2023/09/14 05:11:26;;;;;;;;;;;;;;;;;;5092797;28;20041;-70
2023/09/14 05:13:51;;;;;;;;;;;;;;;;;;5092098;28;19955;-70
2023/09/14 05:16:17;;;;;;;;;;;;;;;;;;5074439;28;19912;-70
2023/09/14 05:18:45;;;;;;;;;;;;;;;;;;5092414;28;20414;-70
2023/09/14 05:21:12;;;;;;;;;;;;;;;;;;5092612;28;19918;-70
2023/09/14 05:23:38;;;;;;;;;;;;;;;;;;5091931;28;19908;-70
2023/09/14 05:26:04;;;;;;;;;;;;;;;;;;5090094;28;19915;-70
2023/09/14 05:28:29;;;;;;;;;;;;;;;;;;5091516;28;20595;-70
2023/09/14 05:30:55;;;;;;;;;;;;;;;;;;5092664;28;19915;-71
2023/09/14 05:33:21;;;;;;;;;;;;;;;;;;5091947;28;19916;-70
2023/09/14 05:35:50;;;;;;;;;;;;;;;;;;5092066;28;19995;-70
2023/09/14 05:38:16;;;;;;;;;;;;;;;;;;5092077;28;20386;-70
2023/09/14 05:40:42;;;;;;;;;;;;;;;;;;5092082;28;20008;-70
2023/09/14 05:43:08;;;;;;;;;;;;;;;;;;5092112;28;20374;-70
2023/09/14 05:45:34;;;;;;;;;;;;;;;;;;5092076;28;20004;-71
2023/09/14 05:48:00;;;;;;;;;;;;;;;;;;5092640;28;20544;-71
2023/09/14 05:50:26;;;;;;;;;;;;;;;;;;5092969;28;20434;-70
2023/09/14 05:52:55;;;;;;;;;;;;;;;;;;5073864;28;19908;-68
2023/09/14 05:55:21;;;;;;;;;;;;;;;;;;5091463;28;19912;-71
2023/09/14 05:57:47;;;;;;;;;;;;;;;;;;5091781;28;20341;-69
2023/09/14 06:00:13;;;;;;;;;;;;;;;;;;5092379;28;19969;-70
2023/09/14 06:02:39;;;;;;;;;;;;;;;;;;5091869;28;19908;-70
2023/09/14 06:05:05;;;;;;;;;;;;;;;;;;5091730;28;19999;-70
2023/09/14 06:07:31;;;;;;;;;;;;;;;;;;5091764;28;19916;-70
2023/09/14 06:09:57;;;;;;;;;;;;;;;;;;5091545;28;19908;-70
2023/09/14 06:12:23;;;;;;;;;;;;;;;;;;5073736;28;20322;-70
2023/09/14 06:14:49;;;;;;;;;;;;;;;;;;5073361;28;19992;-70
2023/09/14 06:17:14;;;;;;;;;;;;;;;;;;5091919;28;19908;-70
2023/09/14 06:19:40;;;;;;;;;;;;;;;;;;5092222;28;19916;-70
2023/09/14 06:22:07;;;;;;;;;;;;;;;;;;5091921;28;20402;-70
2023/09/14 06:24:33;;;;;;;;;;;;;;;;;;5091046;28;19909;-68
2023/09/14 06:26:59;;;;;;;;;;;;;;;;;;5089538;28;19915;-70
2023/09/14 06:29:25;;;;;;;;;;;;;;;;;;5090898;28;20372;-71
2023/09/14 06:31:51;;;;;;;;;;;;;;;;;;5077551;28;20402;-70
2023/09/14 06:34:17;;;;;;;;;;;;;;;;;;5085842;28;19909;-71
2023/09/14 06:36:43;;;;;;;;;;;;;;;;;;5071390;28;20290;-72
2023/09/14 06:39:10;;;;;;;;;;;;;;;;;;5067596;28;19908;-70
2023/09/14 06:41:35;;;;;;;;;;;;;;;;;;5094930;28;19909;-70
2023/09/14 06:44:01;;;;;;;;;;;;;;;;;;5095312;28;19909;-70
2023/09/14 06:46:27;;;;;;;;;;;;;;;;;;5095281;28;19962;-71
2023/09/14 06:48:53;;;;;;;;;;;;;;;;;;5094781;28;20007;-71
2023/09/14 06:51:19;;;;;;;;;;;;;;;;;;5069299;28;19919;-71
2023/09/14 06:53:45;;;;;;;;;;;;;;;;;;5094851;28;19979;-71
2023/09/14 06:56:11;;;;;;;;;;;;;;;;;;5095171;28;20102;-70
2023/09/14 06:58:37;;;;;;;;;;;;;;;;;;5077130;28;19955;-71
2023/09/14 07:01:04;;;;;;;;;;;;;;;;;;5095412;28;20002;-71
2023/09/14 07:03:30;;;;;;;;;;;;;;;;;;5095208;28;19908;-71
2023/09/14 07:05:56;;;;;;;;;;;;;;;;;;5094562;28;20363;-71
2023/09/14 07:08:22;;;;;;;;;;;;;;;;;;5094865;28;19931;-71
2023/09/14 07:10:48;;;;;;;;;;;;;;;;;;5077480;28;20308;-72
2023/09/14 07:13:14;;;;;;;;;;;;;;;;;;5095235;28;19915;-71
2023/09/14 07:15:40;;;;;;;;;;;;;;;;;;5095236;28;19909;-71
2023/09/14 07:18:06;;;;;;;;;;;;;;;;;;5095121;28;19908;-71
2023/09/14 07:20:32;;;;;;;;;;;;;;;;;;5095210;28;20390;-71
2023/09/14 07:22:58;;;;;;;;;;;;;;;;;;5094720;28;19908;-69
2023/09/14 07:25:24;;;;;;;;;;;;;;;;;;5094707;28;19953;-70
2023/09/14 07:27:50;;;;;;;;;;;;;;;;;;5094812;28;19916;-71
2023/09/14 07:30:16;;;;;;;;;;;;;;;;;;5094796;28;19908;-71
2023/09/14 07:32:42;;;;;;;;;;;;;;;;;;5094680;28;20399;-70
2023/09/14 07:35:08;;;;;;;;;;;;;;;;;;5094579;28;19917;-72
2023/09/14 07:37:34;;;;;;;;;;;;;;;;;;5094530;28;19927;-70
2023/09/14 07:40:00;;;;;;;;;;;;;;;;;;5086940;28;19915;-72
2023/09/14 07:42:26;;;;;;;;;;;;;;;;;;5094381;28;19909;-70
2023/09/14 07:45:04;;;;;;;;;;;;;;;;;;5094405;28;20306;-71
2023/09/14 07:47:30;;;;;;;;;;;;;;;;;;5094454;28;19912;-70
2023/09/14 07:49:57;;;;;;;;;;;;;;;;;;5076134;28;19909;-70
2023/09/14 07:52:23;;;;;;;;;;;;;;;;;;5093542;28;20367;-70
2023/09/14 07:54:49;;;;;;;;;;;;;;;;;;5093817;28;19973;-71
2023/09/14 07:57:15;;;;;;;;;;;;;;;;;;5094139;28;19912;-71
2023/09/14 07:59:41;;;;;;;;;;;;;;;;;;5093962;28;19916;-70
2023/09/14 08:02:08;;;;;;;;;;;;;;;;;;5094196;28;19977;-71
2023/09/14 08:04:33;;;;;;;;;;;;;;;;;;5075713;28;19908;-70
2023/09/14 08:06:59;;;;;;;;;;;;;;;;;;5094417;28;19962;-71
2023/09/14 08:09:26;;;;;;;;;;;;;;;;;;5093899;28;20394;-71
2023/09/14 08:11:52;;;;;;;;;;;;;;;;;;5094062;28;19965;-70
2023/09/14 08:14:20;;;;;;;;;;;;;;;;;;5093830;28;19908;-70
2023/09/14 08:16:46;;;;;;;;;;;;;;;;;;5093828;28;19908;-70
2023/09/14 08:19:12;;;;;;;;;;;;;;;;;;5093337;28;19942;-71
2023/09/14 08:21:38;;;;;;;;;;;;;;;;;;5093702;28;19908;-70
2023/09/14 08:24:04;;;;;;;;;;;;;;;;;;5093512;28;19915;-71
2023/09/14 08:26:29;;;;;;;;;;;;;;;;;;5093575;28;20332;-70
2023/09/14 08:28:55;;;;;;;;;;;;;;;;;;5093546;28;19966;-71
2023/09/14 08:31:21;;;;;;;;;;;;;;;;;;5093653;28;19940;-70
2023/09/14 08:33:47;;;;;;;;;;;;;;;;;;5091627;28;20343;-70
2023/09/14 08:36:13;;;;;;;;;;;;;;;;;;5074164;28;20003;-70
2023/09/14 08:38:39;;;;;;;;;;;;;;;;;;5085905;28;19935;-71
2023/09/14 08:41:05;;;;;;;;;;;;;;;;;;5075181;28;19908;-71
2023/09/14 08:43:31;;;;;;;;;;;;;;;;;;5093357;28;20371;-71
2023/09/14 08:45:58;;;;;;;;;;;;;;;;;;5093389;28;19951;-71
2023/09/14 08:48:24;;;;;;;;;;;;;;;;;;5093041;28;20425;-71
2023/09/14 08:50:50;;;;;;;;;;;;;;;;;;5092953;28;19908;-71
2023/09/14 08:53:16;;;;;;;;;;;;;;;;;;5074831;28;19934;-71
2023/09/14 08:55:43;;;;;;;;;;;;;;;;;;5093061;28;20016;-70
2023/09/14 08:58:09;;;;;;;;;;;;;;;;;;5074668;28;20290;-71
2023/09/14 09:00:35;;;;;;;;;;;;;;;;;;5092586;28;19916;-70
2023/09/14 09:03:01;;;;;;;;;;;;;;;;;;5092784;28;19995;-70
2023/09/14 09:05:27;;;;;;;;;;;;;;;;;;5092651;28;20397;-71
2023/09/14 09:07:54;;;;;;;;;;;;;;;;;;5074535;28;19998;-70
2023/09/14 09:10:20;;;;;;;;;;;;;;;;;;5092844;28;19908;-71
2023/09/14 09:12:46;;;;;;;;;;;;;;;;;;5092888;28;20333;-71
2023/09/14 09:15:12;;;;;;;;;;;;;;;;;;5074359;28;19953;-70
2023/09/14 09:17:39;;;;;;;;;;;;;;;;;;5074200;28;19965;-71
2023/09/14 09:20:05;;;;;;;;;;;;;;;;;;5092767;28;20338;-71
2023/09/14 09:22:31;;;;;;;;;;;;;;;;;;5092726;28;19912;-71
2023/09/14 09:24:59;;;;;;;;;;;;;;;;;;5092371;28;19934;-71
2023/09/14 09:27:25;;;;;;;;;;;;;;;;;;5074147;28;20006;-70
2023/09/14 09:29:51;;;;;;;;;;;;;;;;;;5092475;28;20023;-71
2023/09/14 09:32:17;;;;;;;;;;;;;;;;;;5091649;28;19908;-70
2023/09/14 09:34:43;;;;;;;;;;;;;;;;;;5091869;28;20393;-70
2023/09/14 09:37:09;;;;;;;;;;;;;;;;;;5092758;28;19951;-71
2023/09/14 09:39:35;;;;;;;;;;;;;;;;;;5084612;28;19939;-71
2023/09/14 09:42:00;;;;;;;;;;;;;;;;;;5092062;28;19961;-70
2023/09/14 09:44:27;;;;;;;;;;;;;;;;;;5091976;28;19908;-71
2023/09/14 09:46:53;;;;;;;;;;;;;;;;;;5092096;28;19912;-71
2023/09/14 09:49:19;;;;;;;;;;;;;;;;;;5092110;28;19935;-71
2023/09/14 09:51:45;;;;;;;;;;;;;;;;;;5092265;28;19956;-71
2023/09/14 09:54:11;;;;;;;;;;;;;;;;;;5091900;28;19911;-71
2023/09/14 09:56:37;;;;;;;;;;;;;;;;;;5091916;28;19909;-71
2023/09/14 09:59:04;;;;;;;;;;;;;;;;;;5091686;28;19916;-71
2023/09/14 10:01:30;;;;;;;;;;;;;;;;;;5092068;28;19912;-71
2023/09/14 10:03:59;;;;;;;;;;;;;;;;;;5073428;28;19915;-70
2023/09/14 10:06:24;;;;;;;;;;;;;;;;;;5091787;28;19915;-71
2023/09/14 10:08:50;;;;;;;;;;;;;;;;;;5073562;28;19912;-71
2023/09/14 10:11:16;;;;;;;;;;;;;;;;;;5092045;28;19951;-71
2023/09/14 10:13:45;;;;;;;;;;;;;;;;;;5091285;28;20333;-70
2023/09/14 10:16:11;;;;;;;;;;;;;;;;;;5091588;28;19908;-70
2023/09/14 10:18:37;;;;;;;;;;;;;;;;;;5091609;28;19915;-70
2023/09/14 10:21:03;;;;;;;;;;;;;;;;;;5091747;28;19931;-70
2023/09/14 10:23:29;;;;;;;;;;;;;;;;;;5091506;28;19909;-70
2023/09/14 10:25:55;;;;;;;;;;;;;;;;;;5091270;28;19923;-71
2023/09/14 10:28:21;;;;;;;;;;;;;;;;;;5090987;28;19919;-70
2023/09/14 10:30:47;;;;;;;;;;;;;;;;;;5072376;28;19909;-71
2023/09/14 10:33:13;;;;;;;;;;;;;;;;;;5091322;28;19908;-71
2023/09/14 10:35:39;;;;;;;;;;;;;;;;;;5091673;28;20536;-72
2023/09/14 10:38:05;;;;;;;;;;;;;;;;;;5078350;28;19922;-71
2023/09/14 10:40:31;;;;;;;;;;;;;;;;;;5087752;28;19999;-72
2023/09/14 10:42:57;;;;;;;;;;;;;;;;;;5073313;28;20293;-71
2023/09/14 10:45:25;;;;;;;;;;;;;;;;;;5073228;28;20300;-71
2023/09/14 10:47:51;;;;;;;;;;;;;;;;;;5091403;28;20268;-71
2023/09/14 10:50:19;;;;;;;;;;;;;;;;;;5073454;28;19908;-71
2023/09/14 10:52:44;;;;;;;;;;;;;;;;;;5091393;28;19915;-71
2023/09/14 10:55:10;;;;;;;;;;;;;;;;;;5091037;28;19992;-71
2023/09/14 10:57:36;;;;;;;;;;;;;;;;;;5091137;28;19912;-72
2023/09/14 11:00:04;;;;;;;;;;;;;;;;;;5091313;28;20383;-70
2023/09/14 11:02:30;;;;;;;;;;;;;;;;;;5091343;28;20363;-70
2023/09/14 11:04:56;;;;;;;;;;;;;;;;;;5090826;28;19908;-71
2023/09/14 11:07:22;;;;;;;;;;;;;;;;;;5063560;28;19908;-72
2023/09/14 11:09:48;;;;;;;;;;;;;;;;;;5091198;28;19908;-71
2023/09/14 11:12:14;;;;;;;;;;;;;;;;;;5073604;28;19916;-71
2023/09/14 11:14:40;;;;;;;;;;;;;;;;;;5091250;28;19934;-71
2023/09/14 11:17:06;;;;;;;;;;;;;;;;;;5091406;28;20279;-71
2023/09/14 11:19:32;;;;;;;;;;;;;;;;;;5091350;28;20006;-71
2023/09/14 11:21:57;;;;;;;;;;;;;;;;;;5091334;28;19915;-71
2023/09/14 11:24:23;;;;;;;;;;;;;;;;;;5072954;28;20349;-72
2023/09/14 11:26:50;;;;;;;;;;;;;;;;;;5092093;28;19915;-72
2023/09/14 11:29:15;;;;;;;;;;;;;;;;;;5094978;28;19916;-70
2023/09/14 11:31:42;;;;;;;;;;;;;;;;;;5094868;28;19962;-71
2023/09/14 11:34:08;;;;;;;;;;;;;;;;;;5094921;28;19908;-71
2023/09/14 11:36:34;;;;;;;;;;;;;;;;;;5094939;28;20464;-72
2023/09/14 11:39:00;;;;;;;;;;;;;;;;;;5076605;28;19908;-72
2023/09/14 11:41:25;;;;;;;;;;;;;;;;;;5094806;28;20607;-71
2023/09/14 11:43:51;;;;;;;;;;;;;;;;;;5059924;28;19916;-70
2023/09/14 11:46:17;;;;;;;;;;;;;;;;;;5054568;28;19909;-70
2023/09/14 11:48:45;;;;;;;;;;;;;;;;;;5036737;28;19917;-71
2023/09/14 11:51:11;;;;;;;;;;;;;;;;;;5054316;28;20304;-71
2023/09/14 11:53:37;;;;;;;;;;;;;;;;;;5053982;28;19909;-70
2023/09/14 11:56:03;;;;;;;;;;;;;;;;;;5036502;28;19912;-69
2023/09/14 11:58:29;;;;;;;;;;;;;;;;;;5056975;28;20047;-71
2023/09/14 12:00:55;;;;;;;;;;;;;;;;;;5129705;22;19923;-77
2023/09/14 12:03:21;;;;;;;;;;;;;;;;;;5097496;28;19911;-75
2023/09/14 12:05:47;;;;;;;;;;;;;;;;;;5097728;28;20370;-76
2023/09/14 12:08:13;;;;;;;;;;;;;;;;;;5115148;28;19916;-76
2023/09/14 12:10:39;;;;;;;;;;;;;;;;;;5096525;28;20343;-76
2023/09/14 12:13:05;;;;;;;;;;;;;;;;;;5114672;28;19908;-76
2023/09/14 12:15:31;;;;;;;;;;;;;;;;;;5114566;28;19918;-76
2023/09/14 12:17:57;;;;;;;;;;;;;;;;;;5114855;28;20278;-76
2023/09/14 12:20:23;;;;;;;;;;;;;;;;;;5114429;28;19908;-76
2023/09/14 12:22:49;;;;;;;;;;;;;;;;;;5096365;28;20348;-77
2023/09/14 12:25:15;;;;;;;;;;;;;;;;;;5112814;28;20025;-76
2023/09/14 12:27:41;;;;;;;;;;;;;;;;;;5094442;28;20387;-76
2023/09/14 12:30:07;;;;;;;;;;;;;;;;;;5094828;28;20408;-77
2023/09/14 12:32:34;;;;;;;;;;;;;;;;;;5096209;28;19998;-77
2023/09/14 12:35:00;;;;;;;;;;;;;;;;;;5113560;28;19908;-76
2023/09/14 12:37:26;;;;;;;;;;;;;;;;;;5113708;28;19908;-76
2023/09/14 12:39:52;;;;;;;;;;;;;;;;;;5114182;28;19908;-76
2023/09/14 12:42:18;;;;;;;;;;;;;;;;;;5114340;28;19915;-77
2023/09/14 12:44:44;;;;;;;;;;;;;;;;;;5114619;28;19963;-76
2023/09/14 12:47:10;;;;;;;;;;;;;;;;;;5116937;28;20374;-76
2023/09/14 12:49:36;;;;;;;;;;;;;;;;;;5117273;28;19912;-76
2023/09/14 12:52:02;;;;;;;;;;;;;;;;;;5117488;28;20321;-75
2023/09/14 12:54:28;;;;;;;;;;;;;;;;;;5097776;28;19907;-76
2023/09/14 12:56:54;;;;;;;;;;;;;;;;;;5114027;28;19915;-76
2023/09/14 12:59:20;;;;;;;;;;;;;;;;;;5113608;28;19918;-76
2023/09/14 13:01:46;;;;;;;;;;;;;;;;;;5113186;28;20366;-76
2023/09/14 13:04:12;;;;;;;;;;;;;;;;;;5113044;28;19912;-75
2023/09/14 13:06:37;;;;;;;;;;;;;;;;;;5113600;28;20462;-76
2023/09/14 13:09:08;;;;;;;;;;;;;;;;;;5113595;28;19911;-80
2023/09/14 13:11:36;;;;;;;;;;;;;;;;;;5113618;28;19914;-76
2023/09/14 13:14:02;;;;;;;;;;;;;;;;;;5113699;28;19936;-75
2023/09/14 13:16:28;;;;;;;;;;;;;;;;;;5095293;28;20017;-76
2023/09/14 13:18:54;;;;;;;;;;;;;;;;;;5113254;28;20391;-75
2023/09/14 13:21:21;;;;;;;;;;;;;;;;;;5113627;28;19934;-76
2023/09/14 13:23:47;;;;;;;;;;;;;;;;;;5113180;28;19983;-75
2023/09/14 13:26:13;;;;;;;;;;;;;;;;;;5113356;28;19915;-76
2023/09/14 13:28:39;;;;;;;;;;;;;;;;;;5113124;28;19912;-77
2023/09/14 13:31:05;;;;;;;;;;;;;;;;;;5113018;28;19915;-76
2023/09/14 13:33:31;;;;;;;;;;;;;;;;;;5113000;28;19911;-76
2023/09/14 13:36:00;;;;;;;;;;;;;;;;;;5095102;28;19923;-76
2023/09/14 13:38:27;;;;;;;;;;;;;;;;;;5095032;28;19910;-76
2023/09/14 13:40:53;;;;;;;;;;;;;;;;;;5094903;28;19908;-77
2023/09/14 13:43:19;;;;;;;;;;;;;;;;;;5094480;28;19915;-76
2023/09/14 13:45:47;;;;;;;;;;;;;;;;;;5094759;28;19919;-76
2023/09/14 13:48:13;;;;;;;;;;;;;;;;;;5094872;28;19912;-75
2023/09/14 13:50:39;;;;;;;;;;;;;;;;;;5112405;28;20543;-76
2023/09/14 13:53:08;;;;;;;;;;;;;;;;;;5094374;28;19908;-76
2023/09/14 13:55:34;;;;;;;;;;;;;;;;;;5094604;28;19908;-76
2023/09/14 13:57:59;;;;;;;;;;;;;;;;;;5112618;28;19912;-75
2023/09/14 14:00:25;;;;;;;;;;;;;;;;;;5094421;28;19915;-76
2023/09/14 14:02:55;;;;;;;;;;;;;;;;;;5111590;28;19911;-77
2023/09/14 14:05:21;;;;;;;;;;;;;;;;;;5111140;28;20015;-76
2023/09/14 14:07:47;;;;;;;;;;;;;;;;;;5110726;28;20358;-75
2023/09/14 14:10:17;;;;;;;;;;;;;;;;;;5112012;28;20441;-76
2023/09/14 14:12:43;;;;;;;;;;;;;;;;;;5111519;28;19912;-77
2023/09/14 14:15:09;;;;;;;;;;;;;;;;;;5112198;28;20379;-77
2023/09/14 14:17:35;;;;;;;;;;;;;;;;;;5112884;28;19908;-77
2023/09/14 14:20:01;;;;;;;;;;;;;;;;;;5112566;28;19942;-76
2023/09/14 14:22:27;;;;;;;;;;;;;;;;;;5094561;28;19915;-77
2023/09/14 14:24:53;;;;;;;;;;;;;;;;;;5112619;28;19934;-77
2023/09/14 14:27:19;;;;;;;;;;;;;;;;;;5093442;28;19947;-77
2023/09/14 14:29:45;;;;;;;;;;;;;;;;;;5112938;28;19938;-77
2023/09/14 14:32:11;;;;;;;;;;;;;;;;;;5111990;28;19953;-78
2023/09/14 14:34:37;;;;;;;;;;;;;;;;;;5111963;28;19962;-78
2023/09/14 14:37:03;;;;;;;;;;;;;;;;;;5113342;28;20050;-78
2023/09/14 14:39:30;;;;;;;;;;;;;;;;;;5112709;28;19960;-77
2023/09/14 14:41:56;;;;;;;;;;;;;;;;;;5112142;28;19908;-77
2023/09/14 14:44:22;;;;;;;;;;;;;;;;;;5111129;28;19912;-77
2023/09/14 14:46:48;;;;;;;;;;;;;;;;;;5094528;28;19908;-77
2023/09/14 14:49:13;;;;;;;;;;;;;;;;;;5111572;28;20426;-77
2023/09/14 14:51:39;;;;;;;;;;;;;;;;;;5096545;28;19961;-78
2023/09/14 14:54:06;;;;;;;;;;;;;;;;;;5097177;28;20396;-77
2023/09/14 14:56:32;;;;;;;;;;;;;;;;;;5096595;28;19918;-77
2023/09/14 14:58:59;;;;;;;;;;;;;;;;;;5096096;28;19951;-78
2023/09/14 15:01:27;;;;;;;;;;;;;;;;;;5096057;28;19987;-76
2023/09/14 15:03:53;;;;;;;;;;;;;;;;;;5115999;28;19990;-76
2023/09/14 15:06:25;;;;;;;;;;;;;;;;;;5097827;28;19998;-75
2023/09/14 15:08:51;;;;;;;;;;;;;;;;;;5098025;28;19919;-77
2023/09/14 15:11:17;;;;;;;;;;;;;;;;;;5097665;28;19908;-76
2023/09/14 15:13:43;;;;;;;;;;;;;;;;;;5116250;28;19991;-76
2023/09/14 15:16:12;;;;;;;;;;;;;;;;;;5097767;28;19999;-76
2023/09/14 15:18:38;;;;;;;;;;;;;;;;;;5116270;28;20264;-77
2023/09/14 15:21:06;;;;;;;;;;;;;;;;;;5100195;28;19914;-76
2023/09/14 15:23:34;;;;;;;;;;;;;;;;;;5101416;28;19907;-77
2023/09/14 15:26:00;;;;;;;;;;;;;;;;;;5101899;28;19946;-77
2023/09/14 15:28:27;;;;;;;;;;;;;;;;;;5102275;28;19912;-77
2023/09/14 15:30:52;;;;;;;;;;;;;;;;;;5097253;28;19951;-74
2023/09/14 15:33:18;;;;;;;;;;;;;;;;;;5096746;28;19954;-75
2023/09/14 15:35:44;;;;;;;;;;;;;;;;;;5115049;28;20464;-73
2023/09/14 15:38:10;;;;;;;;;;;;;;;;;;5110984;28;19920;-70
2023/09/14 15:40:36;;;;;;;;;;;;;;;;;;5111577;28;19977;-71
2023/09/14 15:43:03;;;;;;;;;;;;;;;;;;5109315;28;19915;-71
2023/09/14 15:45:28;;;;;;;;;;;;;;;;;;5113463;28;19908;-69
2023/09/14 15:47:56;;;;;;;;;;;;;;;;;;5112833;28;19912;-71
2023/09/14 15:50:21;;;;;;;;;;;;;;;;;;5114884;28;19912;-72
2023/09/14 15:52:47;;;;;;;;;;;;;;;;;;5114692;28;19914;-72
2023/09/14 15:55:13;;;;;;;;;;;;;;;;;;5112422;28;19915;-72
2023/09/14 15:57:39;;;;;;;;;;;;;;;;;;5114474;28;19907;-72
2023/09/14 16:00:08;;;;;;;;;;;;;;;;;;5114688;28;20332;-72
2023/09/14 16:02:35;;;;;;;;;;;;;;;;;;5114860;28;19915;-71
2023/09/14 16:05:02;;;;;;;;;;;;;;;;;;5114408;28;19908;-71
2023/09/14 16:07:28;;;;;;;;;;;;;;;;;;5107286;28;20002;-71
2023/09/14 16:09:54;;;;;;;;;;;;;;;;;;5093792;28;19999;-71
2023/09/14 16:12:20;;;;;;;;;;;;;;;;;;5100825;28;20264;-72
2023/09/14 16:14:46;;;;;;;;;;;;;;;;;;5113960;27;19908;-72
2023/09/14 16:17:12;;;;;;;;;;;;;;;;;;5114270;28;19918;-74
2023/09/14 16:19:38;;;;;;;;;;;;;;;;;;5114114;28;19908;-74
2023/09/14 16:22:04;;;;;;;;;;;;;;;;;;5114138;28;19919;-73
2023/09/14 16:24:30;;;;;;;;;;;;;;;;;;5106321;28;19908;-75
2023/09/14 16:26:55;;;;;;;;;;;;;;;;;;5105000;28;21276;-75
2023/09/14 16:29:21;;;;;;;;;;;;;;;;;;5107776;28;19919;-76
2023/09/14 16:31:47;;;;;;;;;;;;;;;;;;5112507;28;19908;-76
2023/09/14 16:34:13;;;;;;;;;;;;;;;;;;5105643;28;19976;-76
2023/09/14 16:36:39;;;;;;;;;;;;;;;;;;5112650;28;19908;-76
2023/09/14 16:39:08;;;;;;;;;;;;;;;;;;5105644;28;19908;-76